createdAt,value
2022-08-08T00:00:56.012Z,1.60
2022-08-08T00:03:32.045Z,1.70
2022-08-08T00:06:28.257Z,1.58
2022-08-08T00:09:34.261Z,1.80
2022-08-08T00:12:10.498Z,1.80
2022-08-08T00:15:06.261Z,1.70
2022-08-08T00:18:16.222Z,1.55
2022-08-08T00:20:53.078Z,1.58
2022-08-08T00:23:43.393Z,1.80
2022-08-08T00:26:38.595Z,2.03
2022-08-08T00:29:44.949Z,1.90
2022-08-08T00:32:34.930Z,2.05
2022-08-08T00:35:25.727Z,1.88
2022-08-08T00:38:32.298Z,2.08
2022-08-08T00:41:22.085Z,2.10
2022-08-08T00:44:24.631Z,2.33
2022-08-08T00:47:14.228Z,2.10
2022-08-08T00:50:07.953Z,2.05
2022-08-08T00:53:01.247Z,2.03
2022-08-08T00:55:52.967Z,2.30
2022-08-08T00:58:54.597Z,2.13
2022-08-08T01:03:27.363Z,2.28
2022-08-08T01:05:29.249Z,2.58
2022-08-08T01:08:50.204Z,2.40
2022-08-08T01:11:57.143Z,2.42
2022-08-08T01:14:57.388Z,2.20
2022-08-08T01:17:54.783Z,2.35
2022-08-08T01:20:46.737Z,2.40
2022-08-08T01:24:06.729Z,2.55
2022-08-08T01:27:24.138Z,2.70
2022-08-08T01:30:27.199Z,2.80
2022-08-08T01:33:54.408Z,2.67
2022-08-08T01:36:44.313Z,2.60
2022-08-08T01:39:53.766Z,2.90
2022-08-08T01:42:44.867Z,3.20
2022-08-08T01:45:16.989Z,3.40
2022-08-08T01:48:31.020Z,3.35
2022-08-08T01:51:48.984Z,3.22
2022-08-08T01:55:45.569Z,3.20
2022-08-08T01:57:26.171Z,3.20
2022-08-08T02:00:17.331Z,3.63
2022-08-08T02:02:57.926Z,3.75
2022-08-08T02:05:56.816Z,3.55
2022-08-08T02:08:47.241Z,3.40
2022-08-08T02:11:59.435Z,3.80
2022-08-08T02:14:33.402Z,3.70
2022-08-08T02:17:20.302Z,3.70
2022-08-08T02:20:09.170Z,3.83
2022-08-08T02:23:08.760Z,3.70
2022-08-08T02:26:08.117Z,3.45
2022-08-08T02:28:48.311Z,3.53
2022-08-08T02:31:58.112Z,3.75
2022-08-08T02:35:08.232Z,3.55
2022-08-08T02:37:57.062Z,3.85
2022-08-08T02:40:28.021Z,3.67
2022-08-08T02:44:38.225Z,4.03
2022-08-08T02:46:23.344Z,4.10
2022-08-08T02:49:47.304Z,3.50
2022-08-08T02:52:38.300Z,4.10
2022-08-08T02:58:42.137Z,3.63
2022-08-08T03:01:27.855Z,3.83
2022-08-08T03:05:04.944Z,3.63
2022-08-08T03:07:41.144Z,4.10
2022-08-08T03:10:55.428Z,4.07
2022-08-08T03:16:00.048Z,3.20
2022-08-08T03:16:37.459Z,4.03
2022-08-08T03:19:19.907Z,3.95
2022-08-08T03:21:58.337Z,3.60
2022-08-08T03:24:28.893Z,3.70
2022-08-08T03:27:13.234Z,3.33
2022-08-08T03:29:56.144Z,3.65
2022-08-08T03:32:53.295Z,3.30
2022-08-08T03:35:33.084Z,3.50
2022-08-08T03:38:56.911Z,3.80
2022-08-08T03:40:54.549Z,3.42
2022-08-08T03:43:25.198Z,3.20
2022-08-08T03:46:09.025Z,3.63
2022-08-08T03:49:30.932Z,3.22
2022-08-08T03:51:47.029Z,3.10
2022-08-08T03:54:40.803Z,3.22
2022-08-08T03:58:33.454Z,3.15
2022-08-08T04:00:11.238Z,3.05
2022-08-08T04:02:53.965Z,2.85
2022-08-08T04:05:28.828Z,2.65
2022-08-08T04:08:01.986Z,2.85
2022-08-08T04:10:32.869Z,3.13
2022-08-08T04:13:17.105Z,3.03
2022-08-08T04:15:54.775Z,3.13
2022-08-08T04:18:41.953Z,3.13
2022-08-08T04:21:13.078Z,2.72
2022-08-08T04:24:05.593Z,2.75
2022-08-08T04:26:35.431Z,2.78
2022-08-08T04:29:16.445Z,2.97
2022-08-08T04:32:00.196Z,2.63
2022-08-08T04:34:32.274Z,2.85
2022-08-08T04:37:11.951Z,2.80
2022-08-08T04:40:04.792Z,2.63
2022-08-08T04:42:30.499Z,2.83
2022-08-08T04:45:01.028Z,2.35
2022-08-08T04:47:28.552Z,2.95
2022-08-08T04:50:01.001Z,2.60
2022-08-08T04:52:35.448Z,2.78
2022-08-08T04:55:08.154Z,2.47
2022-08-08T04:57:35.882Z,2.72
2022-08-08T05:00:05.813Z,2.97
2022-08-08T05:02:34.470Z,2.60
2022-08-08T05:05:03.463Z,2.30
2022-08-08T05:07:42.548Z,2.58
2022-08-08T05:10:13.164Z,2.78
2022-08-08T05:12:53.594Z,2.85
2022-08-08T05:16:48.341Z,2.50
2022-08-08T05:18:17.034Z,2.85
2022-08-08T05:20:48.543Z,2.58
2022-08-08T05:25:49.634Z,2.70
2022-08-08T05:28:48.145Z,2.78
2022-08-08T05:31:19.109Z,2.58
2022-08-08T05:33:54.732Z,2.55
2022-08-08T05:36:28.123Z,2.65
2022-08-08T05:38:59.124Z,2.80
2022-08-08T05:41:28.050Z,2.80
2022-08-08T05:44:08.539Z,2.70
2022-08-08T05:46:37.939Z,2.67
2022-08-08T05:49:11.153Z,2.88
2022-08-08T05:51:49.242Z,2.58
2022-08-08T05:54:28.138Z,2.30
2022-08-08T05:57:15.713Z,2.60
2022-08-08T05:59:58.994Z,2.20
2022-08-08T06:03:04.257Z,2.67
2022-08-08T06:05:36.395Z,2.60
2022-08-08T06:08:33.593Z,2.67
2022-08-08T06:11:04.794Z,2.85
2022-08-08T06:13:36.292Z,2.30
2022-08-08T06:16:14.040Z,2.78
2022-08-08T06:19:05.254Z,2.72
2022-08-08T06:21:51.771Z,2.90
2022-08-08T06:24:36.073Z,3.00
2022-08-08T06:27:09.363Z,2.90
2022-08-08T06:30:00.932Z,2.80
2022-08-08T06:32:47.812Z,2.65
2022-08-08T06:36:06.773Z,2.42
2022-08-08T06:38:12.337Z,2.80
2022-08-08T06:40:53.515Z,2.75
2022-08-08T06:43:28.663Z,3.03
2022-08-08T06:46:04.983Z,2.95
2022-08-08T06:48:38.320Z,2.50
2022-08-08T06:51:07.554Z,2.88
2022-08-08T06:53:39.600Z,2.88
2022-08-08T06:56:11.495Z,2.55
2022-08-08T06:58:44.026Z,3.10
2022-08-08T07:02:16.998Z,3.03
2022-08-08T07:04:39.755Z,3.92
2022-08-08T07:07:12.341Z,3.42
2022-08-08T07:10:08.134Z,4.13
2022-08-08T07:12:47.956Z,3.63
2022-08-08T07:16:04.863Z,3.40
2022-08-08T07:19:09.191Z,3.72
2022-08-08T07:22:18.310Z,3.38
2022-08-08T07:25:01.671Z,3.17
2022-08-08T07:27:47.428Z,3.00
2022-08-08T07:30:26.565Z,3.17
2022-08-08T07:32:59.237Z,3.20
2022-08-08T07:35:29.309Z,2.95
2022-08-08T07:38:10.281Z,2.95
2022-08-08T07:41:04.411Z,3.20
2022-08-08T07:43:37.079Z,3.00
2022-08-08T07:46:23.215Z,2.72
2022-08-08T07:48:54.365Z,2.80
2022-08-08T07:51:44.734Z,2.65
2022-08-08T07:54:10.870Z,3.55
2022-08-08T07:56:50.128Z,3.88
2022-08-08T07:59:20.302Z,3.55
2022-08-08T08:02:35.201Z,3.78
2022-08-08T08:04:52.395Z,3.55
2022-08-08T08:07:31.870Z,2.97
2022-08-08T08:10:12.817Z,3.83
2022-08-08T08:13:20.477Z,3.65
2022-08-08T08:16:06.321Z,3.17
2022-08-08T08:18:55.507Z,3.75
2022-08-08T08:21:44.242Z,3.88
2022-08-08T08:24:30.942Z,3.38
2022-08-08T08:27:02.963Z,3.88
2022-08-08T08:29:31.278Z,4.90
2022-08-08T08:32:03.164Z,5.18
2022-08-08T08:34:33.738Z,4.60
2022-08-08T08:37:03.522Z,4.20
2022-08-08T08:39:59.522Z,4.07
2022-08-08T08:42:31.936Z,3.80
2022-08-08T08:45:21.161Z,3.83
2022-08-08T08:47:58.346Z,3.25
2022-08-08T08:50:33.665Z,3.70
2022-08-08T08:53:27.712Z,3.67
2022-08-08T08:56:02.014Z,3.78
2022-08-08T08:58:38.021Z,3.67
2022-08-08T09:01:09.885Z,3.40
2022-08-08T09:03:51.078Z,3.45
2022-08-08T09:06:33.694Z,3.20
2022-08-08T09:09:26.111Z,3.47
2022-08-08T09:12:10.948Z,3.58
2022-08-08T09:14:44.951Z,3.25
2022-08-08T09:17:18.749Z,3.00
2022-08-08T09:22:00.131Z,3.25
2022-08-08T09:22:36.142Z,3.20
2022-08-08T09:25:08.860Z,3.35
2022-08-08T09:27:57.426Z,3.28
2022-08-08T09:30:29.683Z,3.20
2022-08-08T09:33:11.828Z,4.18
2022-08-08T09:35:49.595Z,3.60
2022-08-08T09:38:53.462Z,3.60
2022-08-08T09:42:15.085Z,3.72
2022-08-08T09:45:20.638Z,3.90
2022-08-08T09:48:04.506Z,3.22
2022-08-08T09:50:43.967Z,3.80
2022-08-08T09:53:31.678Z,3.30
2022-08-08T09:56:11.626Z,3.65
2022-08-08T09:58:57.684Z,3.80
2022-08-08T10:01:59.028Z,3.92
2022-08-08T10:04:35.622Z,3.67
2022-08-08T10:07:07.489Z,3.80
2022-08-08T10:10:00.248Z,3.63
2022-08-08T10:12:53.947Z,3.78
2022-08-08T10:15:27.295Z,3.97
2022-08-08T10:18:11.717Z,4.30
2022-08-08T10:20:57.327Z,3.60
2022-08-08T10:23:58.935Z,3.88
2022-08-08T10:26:30.732Z,4.00
2022-08-08T10:29:20.852Z,3.92
2022-08-08T10:32:16.662Z,3.78
2022-08-08T10:35:01.086Z,3.67
2022-08-08T10:37:34.553Z,3.80
2022-08-08T10:40:23.274Z,3.65
2022-08-08T10:43:01.031Z,3.53
2022-08-08T10:45:29.646Z,3.85
2022-08-08T10:48:11.465Z,3.67
2022-08-08T10:50:39.894Z,3.90
2022-08-08T10:53:12.908Z,3.75
2022-08-08T10:55:46.514Z,3.67
2022-08-08T10:58:15.763Z,3.72
2022-08-08T11:00:48.608Z,3.85
2022-08-08T11:03:52.300Z,3.92
2022-08-08T11:06:16.040Z,4.40
2022-08-08T11:08:53.298Z,3.65
2022-08-08T11:11:32.326Z,3.88
2022-08-08T11:14:12.394Z,3.80
2022-08-08T11:19:17.196Z,3.45
2022-08-08T11:21:55.655Z,3.63
2022-08-08T11:24:25.658Z,3.92
2022-08-08T11:26:57.160Z,3.83
2022-08-08T11:29:41.878Z,3.33
2022-08-08T11:32:14.962Z,3.47
2022-08-08T11:35:23.335Z,3.40
2022-08-08T11:38:36.543Z,3.60
2022-08-08T11:40:31.618Z,3.75
2022-08-08T11:43:00.623Z,3.72
2022-08-08T11:45:28.127Z,4.00
2022-08-08T11:48:04.541Z,3.92
2022-08-08T11:50:33.734Z,3.75
2022-08-08T11:53:06.022Z,3.78
2022-08-08T11:55:36.350Z,3.65
2022-08-08T11:58:15.098Z,3.70
2022-08-08T12:00:47.045Z,3.83
2022-08-08T12:03:21.449Z,3.88
2022-08-08T12:05:49.301Z,3.83
2022-08-08T12:08:17.557Z,3.83
2022-08-08T12:10:50.114Z,3.97
2022-08-08T12:13:38.162Z,3.53
2022-08-08T12:16:18.004Z,3.80
2022-08-08T12:18:50.071Z,3.63
2022-08-08T12:22:00.610Z,3.63
2022-08-08T12:24:30.982Z,3.30
2022-08-08T12:26:58.690Z,3.53
2022-08-08T12:29:40.042Z,4.00
2022-08-08T12:32:16.843Z,3.50
2022-08-08T12:35:00.914Z,3.80
2022-08-08T12:37:41.334Z,3.80
2022-08-08T12:40:22.979Z,4.10
2022-08-08T12:42:51.735Z,3.60
2022-08-08T12:45:53.472Z,3.92
2022-08-08T12:48:37.268Z,3.70
2022-08-08T12:51:07.881Z,3.90
2022-08-08T12:53:57.491Z,3.97
2022-08-08T12:56:37.920Z,4.18
2022-08-08T12:59:15.290Z,4.00
2022-08-08T13:01:49.068Z,4.07
2022-08-08T13:04:30.464Z,4.35
2022-08-08T13:06:57.346Z,4.28
2022-08-08T13:09:43.239Z,4.40
2022-08-08T13:12:30.170Z,4.70
2022-08-08T13:15:00.576Z,4.57
2022-08-08T13:18:09.181Z,4.25
2022-08-08T13:20:19.938Z,4.45
2022-08-08T13:22:47.788Z,4.70
2022-08-08T13:25:22.325Z,4.93
2022-08-08T13:27:54.735Z,4.63
2022-08-08T13:30:26.495Z,4.50
2022-08-08T13:33:01.277Z,5.00
2022-08-08T13:38:08.546Z,4.10
2022-08-08T13:40:44.628Z,4.40
2022-08-08T13:43:16.257Z,4.40
2022-08-08T13:45:47.575Z,4.30
2022-08-08T13:48:19.542Z,4.20
2022-08-08T13:50:52.479Z,4.15
2022-08-08T13:53:34.375Z,3.95
2022-08-08T13:56:11.405Z,4.60
2022-08-08T13:58:57.776Z,4.35
2022-08-08T14:01:32.823Z,4.40
2022-08-08T14:04:24.333Z,4.80
2022-08-08T14:07:01.212Z,5.30
2022-08-08T14:10:04.369Z,4.38
2022-08-08T14:12:29.395Z,4.20
2022-08-08T14:14:56.612Z,4.50
2022-08-08T14:17:57.446Z,4.35
2022-08-08T14:20:15.462Z,4.47
2022-08-08T14:24:04.077Z,4.40
2022-08-08T14:26:27.999Z,4.32
2022-08-08T14:28:58.205Z,4.00
2022-08-08T14:32:06.029Z,4.35
2022-08-08T14:34:22.854Z,4.22
2022-08-08T14:36:51.797Z,4.35
2022-08-08T14:39:25.013Z,4.28
2022-08-08T14:42:09.606Z,4.60
2022-08-08T14:44:39.591Z,4.40
2022-08-08T14:47:17.422Z,4.30
2022-08-08T14:50:05.934Z,4.15
2022-08-08T14:52:40.799Z,4.60
2022-08-08T14:55:10.548Z,4.40
2022-08-08T14:58:06.677Z,4.10
2022-08-08T15:00:27.956Z,4.68
2022-08-08T15:02:58.935Z,4.80
2022-08-08T15:05:34.192Z,3.90
2022-08-08T15:08:21.965Z,4.10
2022-08-08T15:10:50.068Z,4.32
2022-08-08T15:13:17.660Z,4.20
2022-08-08T15:16:01.647Z,4.68
2022-08-08T15:18:30.317Z,4.30
2022-08-08T15:20:57.347Z,4.10
2022-08-08T15:23:25.645Z,4.45
2022-08-08T15:26:00.270Z,4.50
2022-08-08T15:28:33.222Z,4.78
2022-08-08T15:31:01.842Z,4.40
2022-08-08T15:33:38.750Z,4.50
2022-08-08T15:36:18.679Z,4.38
2022-08-08T15:38:50.267Z,4.22
2022-08-08T15:41:17.849Z,4.30
2022-08-08T15:44:00.744Z,4.55
2022-08-08T15:46:34.836Z,4.00
2022-08-08T15:49:04.050Z,4.00
2022-08-08T15:51:33.738Z,4.55
2022-08-08T15:54:01.285Z,4.22
2022-08-08T15:56:28.291Z,3.72
2022-08-08T15:58:55.235Z,4.25
2022-08-08T16:01:22.692Z,3.92
2022-08-08T16:03:51.875Z,4.43
2022-08-08T16:06:28.351Z,4.38
2022-08-08T16:13:00.173Z,3.97
2022-08-08T16:13:05.367Z,4.20
2022-08-08T16:14:35.101Z,4.30
2022-08-08T16:17:05.646Z,3.63
2022-08-08T16:19:56.803Z,3.90
2022-08-08T16:22:30.609Z,3.67
2022-08-08T16:24:58.384Z,3.70
2022-08-08T16:27:25.263Z,3.63
2022-08-08T16:30:08.826Z,4.10
2022-08-08T16:32:41.197Z,4.10
2022-08-08T16:35:08.661Z,3.78
2022-08-08T16:37:35.908Z,4.00
2022-08-08T16:40:04.179Z,3.90
2022-08-08T16:42:34.829Z,4.40
2022-08-08T16:45:11.573Z,3.97
2022-08-08T16:47:53.593Z,4.40
2022-08-08T16:50:20.499Z,4.15
2022-08-08T16:55:03.236Z,4.45
2022-08-08T16:55:53.904Z,3.78
2022-08-08T16:58:25.687Z,3.83
2022-08-08T17:00:55.090Z,4.22
2022-08-08T17:03:25.516Z,3.80
2022-08-08T17:06:36.522Z,4.05
2022-08-08T17:08:57.248Z,4.10
2022-08-08T17:11:28.479Z,4.07
2022-08-08T17:14:17.704Z,3.85
2022-08-08T17:16:47.129Z,4.35
2022-08-08T17:19:25.060Z,4.13
2022-08-08T17:21:52.201Z,3.92
2022-08-08T17:24:27.692Z,4.20
2022-08-08T17:26:58.050Z,3.97
2022-08-08T17:29:27.989Z,4.28
2022-08-08T17:31:57.491Z,4.03
2022-08-08T17:34:49.709Z,3.97
2022-08-08T17:37:13.622Z,3.42
2022-08-08T17:40:04.785Z,3.75
2022-08-08T17:42:28.073Z,3.78
2022-08-08T17:44:57.503Z,4.25
2022-08-08T17:47:27.576Z,4.13
2022-08-08T17:50:01.005Z,3.83
2022-08-08T17:52:33.353Z,4.05
2022-08-08T17:55:05.123Z,4.78
2022-08-08T17:57:35.315Z,4.32
2022-08-08T18:00:05.128Z,3.95
2022-08-08T18:02:40.497Z,4.07
2022-08-08T18:05:22.958Z,4.25
2022-08-08T18:08:24.197Z,4.60
2022-08-08T18:10:39.005Z,4.40
2022-08-08T18:13:07.578Z,4.80
2022-08-08T18:15:35.989Z,4.93
2022-08-08T18:18:28.336Z,5.28
2022-08-08T18:20:59.135Z,4.88
2022-08-08T18:23:26.868Z,4.38
2022-08-08T18:25:53.815Z,4.75
2022-08-08T18:28:23.580Z,4.43
2022-08-08T18:30:52.693Z,4.82
2022-08-08T18:33:36.725Z,4.80
2022-08-08T18:36:11.529Z,4.90
2022-08-08T18:38:50.123Z,4.70
2022-08-08T18:41:17.177Z,4.82
2022-08-08T18:43:46.190Z,5.07
2022-08-08T18:46:55.738Z,5.43
2022-08-08T18:49:00.674Z,4.47
2022-08-08T18:51:52.425Z,4.97
2022-08-08T18:54:22.379Z,5.38
2022-08-08T18:56:53.857Z,5.28
2022-08-08T18:59:20.857Z,5.40
2022-08-08T19:02:26.610Z,5.00
2022-08-08T19:04:37.720Z,5.75
2022-08-08T19:07:04.650Z,5.28
2022-08-08T19:09:49.489Z,5.22
2022-08-08T19:12:19.140Z,5.78
2022-08-08T19:14:46.633Z,5.32
2022-08-08T19:17:28.816Z,5.40
2022-08-08T19:20:02.643Z,5.45
2022-08-08T19:22:30.127Z,5.45
2022-08-08T19:25:55.949Z,5.32
2022-08-08T19:27:55.725Z,5.07
2022-08-08T19:30:24.440Z,5.15
2022-08-08T19:32:53.842Z,5.00
2022-08-08T19:35:44.302Z,5.03
2022-08-08T19:38:16.470Z,5.63
2022-08-08T19:40:45.009Z,4.85
2022-08-08T19:43:12.245Z,5.28
2022-08-08T19:45:59.425Z,5.45
2022-08-08T19:48:29.299Z,5.90
2022-08-08T19:50:59.189Z,6.72
2022-08-08T19:53:53.466Z,7.75
2022-08-08T19:56:16.413Z,8.60
2022-08-08T19:58:54.791Z,8.70
2022-08-08T20:01:31.610Z,9.05
2022-08-08T20:04:08.885Z,9.20
2022-08-08T20:06:36.523Z,8.93
2022-08-08T20:09:04.427Z,8.45
2022-08-08T20:11:43.040Z,9.38
2022-08-08T20:14:33.005Z,9.45
2022-08-08T20:16:59.553Z,8.40
2022-08-08T20:19:34.659Z,7.75
2022-08-08T20:22:13.201Z,7.50
2022-08-08T20:24:47.966Z,7.60
2022-08-08T20:27:20.495Z,8.07
2022-08-08T20:30:00.666Z,7.25
2022-08-08T20:32:29.772Z,6.43
2022-08-08T20:35:01.461Z,7.03
2022-08-08T20:37:37.021Z,6.47
2022-08-08T20:40:17.992Z,6.82
2022-08-08T20:43:00.941Z,6.70
2022-08-08T20:45:54.990Z,6.43
2022-08-08T20:48:21.126Z,5.70
2022-08-08T20:50:53.380Z,5.80
2022-08-08T20:53:59.288Z,5.22
2022-08-08T20:56:09.941Z,5.63
2022-08-08T20:58:44.397Z,5.22
2022-08-08T21:01:19.427Z,4.82
2022-08-08T21:03:55.987Z,5.55
2022-08-08T21:06:52.935Z,6.05
2022-08-08T21:09:16.139Z,5.90
2022-08-08T21:11:51.302Z,6.20
2022-08-08T21:14:33.369Z,5.72
2022-08-08T21:17:06.317Z,6.15
2022-08-08T21:19:45.869Z,5.70
2022-08-08T21:22:14.065Z,6.32
2022-08-08T21:24:52.175Z,5.68
2022-08-08T21:28:06.723Z,5.68
2022-08-08T21:30:19.144Z,6.28
2022-08-08T21:32:51.711Z,6.45
2022-08-08T21:36:13.796Z,5.72
2022-08-08T21:38:17.095Z,5.93
2022-08-08T21:40:54.755Z,6.38
2022-08-08T21:43:24.676Z,6.10
2022-08-08T21:48:06.844Z,6.32
2022-08-08T21:48:41.554Z,5.57
2022-08-08T21:51:13.325Z,5.40
2022-08-08T21:54:30.979Z,6.03
2022-08-08T21:56:40.144Z,5.72
2022-08-08T21:59:09.800Z,5.35
2022-08-08T22:01:40.470Z,5.70
2022-08-08T22:04:11.046Z,6.00
2022-08-08T22:06:40.532Z,5.78
2022-08-08T22:09:09.665Z,5.25
2022-08-08T22:12:02.624Z,5.60
2022-08-08T22:14:26.810Z,5.85
2022-08-08T22:16:56.257Z,5.45
2022-08-08T22:19:24.322Z,5.35
2022-08-08T22:21:55.990Z,5.68
2022-08-08T22:24:28.158Z,5.55
2022-08-08T22:27:02.671Z,5.38
2022-08-08T22:29:59.450Z,5.35
2022-08-08T22:32:19.102Z,5.65
2022-08-08T22:34:50.751Z,6.07
2022-08-08T22:37:49.473Z,5.65
2022-08-08T22:40:11.758Z,5.38
2022-08-08T22:42:47.096Z,5.57
2022-08-08T22:45:14.620Z,5.38
2022-08-08T22:47:49.019Z,5.00
2022-08-08T22:50:25.528Z,6.07
2022-08-08T22:54:27.662Z,5.78
2022-08-08T22:55:58.101Z,4.80
2022-08-08T22:58:34.648Z,5.20
2022-08-08T23:01:16.731Z,5.25
2022-08-08T23:03:55.838Z,5.60
2022-08-08T23:06:27.102Z,5.07
2022-08-08T23:09:00.040Z,5.18
2022-08-08T23:12:17.866Z,5.07
2022-08-08T23:14:21.126Z,5.60
2022-08-08T23:16:54.723Z,4.90
2022-08-08T23:19:32.381Z,5.50
2022-08-08T23:22:04.099Z,5.53
2022-08-08T23:24:36.095Z,5.18
2022-08-08T23:27:07.997Z,5.30
2022-08-08T23:29:36.165Z,4.50
2022-08-08T23:32:05.431Z,4.60
2022-08-08T23:34:33.218Z,4.70
2022-08-08T23:37:02.665Z,4.60
2022-08-08T23:39:42.100Z,5.13
2022-08-08T23:42:16.748Z,4.68
2022-08-08T23:44:45.258Z,4.43
2022-08-08T23:49:04.475Z,4.78
2022-08-08T23:50:02.955Z,4.65
2022-08-08T23:52:33.333Z,4.63
2022-08-08T23:55:13.891Z,4.80
2022-08-08T23:57:52.286Z,4.72
